createdAt,value
2017-12-03T00:00:00.689Z,108.80
2017-12-03T00:01:00.709Z,119.90
2017-12-03T00:02:00.710Z,131.40
2017-12-03T00:03:00.722Z,115.30
2017-12-03T00:04:00.728Z,130.30
2017-12-03T00:05:00.733Z,133.30
2017-12-03T00:06:00.753Z,125.00
2017-12-03T00:07:00.773Z,124.50
2017-12-03T00:08:00.778Z,136.70
2017-12-03T00:09:00.792Z,126.80
2017-12-03T00:10:00.794Z,120.50
2017-12-03T00:11:01.105Z,111.70
2017-12-03T00:12:00.819Z,129.90
2017-12-03T00:13:00.823Z,120.80
2017-12-03T00:14:00.824Z,129.50
2017-12-03T00:15:00.865Z,127.90
2017-12-03T00:16:00.849Z,120.50
2017-12-03T00:17:00.862Z,128.00
2017-12-03T00:18:00.871Z,112.10
2017-12-03T00:19:00.882Z,120.00
2017-12-03T00:20:00.883Z,143.90
2017-12-03T00:21:00.893Z,132.70
2017-12-03T00:22:00.903Z,133.70
2017-12-03T00:23:00.916Z,129.10
2017-12-03T00:24:00.915Z,132.80
2017-12-03T00:25:00.941Z,122.40
2017-12-03T00:26:00.955Z,120.50
2017-12-03T00:27:00.952Z,121.60
2017-12-03T00:28:00.972Z,126.10
2017-12-03T00:29:00.977Z,142.70
2017-12-03T00:30:00.981Z,116.80
2017-12-03T00:31:00.993Z,124.70
2017-12-03T00:32:01.005Z,112.00
2017-12-03T00:33:01.012Z,109.30
2017-12-03T00:34:01.026Z,121.60
2017-12-03T00:35:01.024Z,111.00
2017-12-03T00:36:01.040Z,115.70
2017-12-03T00:37:01.053Z,109.60
2017-12-03T00:38:01.056Z,113.20
2017-12-03T00:39:01.067Z,120.10
2017-12-03T00:40:01.081Z,117.30
2017-12-03T00:41:01.080Z,117.50
2017-12-03T00:42:01.099Z,118.60
2017-12-03T00:43:01.119Z,124.90
2017-12-03T00:44:01.117Z,133.70
2017-12-03T00:45:01.130Z,128.90
2017-12-03T00:46:01.407Z,135.50
2017-12-03T00:47:01.151Z,134.50
2017-12-03T00:48:01.164Z,141.20
2017-12-03T00:49:01.169Z,139.40
2017-12-03T00:50:01.170Z,137.50
2017-12-03T00:51:01.194Z,138.00
2017-12-03T00:52:01.188Z,139.70
2017-12-03T00:53:01.201Z,141.40
2017-12-03T00:54:01.211Z,146.10
2017-12-03T00:55:01.227Z,135.50
2017-12-03T00:56:01.247Z,154.90
2017-12-03T00:57:01.252Z,152.40
2017-12-03T00:58:01.254Z,167.00
2017-12-03T00:59:01.268Z,169.70
2017-12-03T01:00:01.283Z,166.60
2017-12-03T01:01:01.537Z,153.60
2017-12-03T01:02:01.293Z,172.50
2017-12-03T01:03:01.299Z,165.10
2017-12-03T01:04:01.318Z,169.00
2017-12-03T01:05:01.317Z,166.30
2017-12-03T01:06:01.326Z,188.60
2017-12-03T01:07:01.338Z,181.70
2017-12-03T01:08:01.350Z,187.40
2017-12-03T01:09:01.362Z,196.40
2017-12-03T01:10:01.372Z,210.90
2017-12-03T01:11:01.376Z,220.30
2017-12-03T01:12:01.401Z,218.80
2017-12-03T01:13:01.388Z,201.80
2017-12-03T01:14:01.409Z,217.30
2017-12-03T01:15:01.424Z,203.00
2017-12-03T01:16:01.426Z,199.20
2017-12-03T01:17:01.440Z,192.00
2017-12-03T01:18:01.449Z,213.80
2017-12-03T01:19:01.459Z,172.60
2017-12-03T01:20:01.466Z,220.60
2017-12-03T01:21:01.477Z,207.40
2017-12-03T01:22:01.487Z,177.50
2017-12-03T01:23:01.493Z,175.60
2017-12-03T01:24:01.498Z,188.00
2017-12-03T01:25:01.512Z,208.80
2017-12-03T01:26:01.521Z,172.80
2017-12-03T01:27:01.532Z,167.10
2017-12-03T01:28:01.545Z,179.20
2017-12-03T01:29:01.548Z,185.30
2017-12-03T01:30:01.557Z,171.50
2017-12-03T01:31:01.570Z,187.10
2017-12-03T01:32:01.576Z,169.60
2017-12-03T01:33:01.589Z,190.60
2017-12-03T01:34:01.591Z,182.80
2017-12-03T01:35:01.605Z,175.80
2017-12-03T01:36:01.627Z,217.30
2017-12-03T01:37:01.626Z,164.30
2017-12-03T01:38:01.636Z,168.00
2017-12-03T01:39:01.654Z,174.50
2017-12-03T01:40:01.659Z,165.00
2017-12-03T01:41:01.665Z,177.00
2017-12-03T01:42:01.674Z,158.80
2017-12-03T01:43:01.685Z,173.40
2017-12-03T01:44:01.698Z,170.60
2017-12-03T01:45:01.709Z,185.50
2017-12-03T01:46:01.716Z,171.90
2017-12-03T01:47:01.727Z,152.20
2017-12-03T01:48:01.732Z,165.50
2017-12-03T01:49:01.749Z,162.20
2017-12-03T01:50:01.746Z,165.80
2017-12-03T01:51:01.750Z,172.80
2017-12-03T01:52:01.764Z,164.00
2017-12-03T01:53:01.768Z,166.30
2017-12-03T01:54:01.783Z,181.60
2017-12-03T01:55:01.792Z,159.00
2017-12-03T01:56:02.095Z,179.60
2017-12-03T01:57:01.813Z,174.90
2017-12-03T01:58:01.822Z,170.10
2017-12-03T01:59:01.827Z,183.20
2017-12-03T02:00:01.835Z,178.70
2017-12-03T02:01:01.839Z,176.30
2017-12-03T02:02:01.854Z,161.80
2017-12-03T02:03:01.862Z,157.60
2017-12-03T02:04:01.868Z,147.80
2017-12-03T02:05:01.880Z,146.60
2017-12-03T02:06:01.898Z,146.40
2017-12-03T02:07:01.901Z,166.00
2017-12-03T02:08:01.924Z,148.60
2017-12-03T02:09:01.923Z,160.50
2017-12-03T02:10:01.938Z,156.10
2017-12-03T02:11:01.951Z,182.30
2017-12-03T02:12:01.957Z,158.00
2017-12-03T02:13:01.973Z,143.00
2017-12-03T02:14:01.971Z,134.40
2017-12-03T02:15:01.977Z,169.80
2017-12-03T02:16:01.988Z,153.40
2017-12-03T02:17:01.994Z,161.30
2017-12-03T02:18:02.004Z,161.10
2017-12-03T02:19:02.022Z,168.00
2017-12-03T02:20:02.027Z,247.40
2017-12-03T02:21:02.039Z,189.70
2017-12-03T02:22:02.043Z,157.40
2017-12-03T02:23:02.047Z,197.90
2017-12-03T02:24:02.059Z,152.20
2017-12-03T02:25:02.076Z,188.30
2017-12-03T02:26:02.074Z,181.50
2017-12-03T02:27:02.087Z,195.70
2017-12-03T02:28:02.096Z,198.40
2017-12-03T02:29:02.115Z,178.40
2017-12-03T02:30:02.120Z,164.80
2017-12-03T02:31:02.119Z,197.50
2017-12-03T02:32:02.138Z,206.20
2017-12-03T02:33:02.140Z,201.90
2017-12-03T02:34:02.152Z,179.60
2017-12-03T02:35:02.165Z,181.70
2017-12-03T02:36:02.164Z,248.80
2017-12-03T02:37:02.175Z,268.80
2017-12-03T02:38:02.191Z,239.70
2017-12-03T02:39:02.200Z,238.80
2017-12-03T02:40:02.205Z,301.50
2017-12-03T02:41:02.214Z,206.30
2017-12-03T02:42:02.225Z,197.70
2017-12-03T02:43:02.242Z,207.10
2017-12-03T02:44:02.257Z,204.50
2017-12-03T02:45:02.256Z,183.70
2017-12-03T02:46:02.265Z,192.40
2017-12-03T02:47:02.284Z,233.20
2017-12-03T02:48:02.286Z,228.90
2017-12-03T02:49:02.300Z,238.20
2017-12-03T02:50:02.303Z,212.80
2017-12-03T02:51:02.560Z,225.30
2017-12-03T02:52:02.329Z,204.40
2017-12-03T02:53:02.332Z,250.40
2017-12-03T02:54:02.337Z,265.00
2017-12-03T02:55:02.354Z,212.70
2017-12-03T02:56:02.354Z,196.30
2017-12-03T02:57:02.374Z,251.50
2017-12-03T02:58:02.382Z,215.90
2017-12-03T02:59:02.380Z,309.70
2017-12-03T03:00:02.397Z,295.30
2017-12-03T03:01:02.398Z,282.50
2017-12-03T03:02:02.406Z,372.60
2017-12-03T03:03:02.421Z,445.40
2017-12-03T03:04:02.435Z,360.60
2017-12-03T03:05:02.452Z,413.80
2017-12-03T03:06:02.461Z,332.30
2017-12-03T03:07:02.472Z,420.40
2017-12-03T03:08:02.476Z,345.90
2017-12-03T03:09:02.482Z,332.00
2017-12-03T03:10:02.497Z,340.50
2017-12-03T03:11:02.503Z,324.20
2017-12-03T03:12:02.514Z,275.80
2017-12-03T03:13:02.521Z,427.60
2017-12-03T03:14:02.540Z,319.30
2017-12-03T03:15:02.545Z,258.40
2017-12-03T03:16:02.547Z,292.30
2017-12-03T03:17:02.559Z,293.30
2017-12-03T03:18:02.562Z,329.80
2017-12-03T03:19:02.575Z,370.60
2017-12-03T03:20:02.588Z,276.30
2017-12-03T03:21:02.604Z,311.10
2017-12-03T03:22:02.621Z,319.50
2017-12-03T03:23:02.618Z,227.90
2017-12-03T03:24:02.637Z,231.60
2017-12-03T03:25:02.636Z,244.60
2017-12-03T03:26:02.945Z,198.00
2017-12-03T03:27:02.663Z,258.50
2017-12-03T03:28:02.668Z,260.40
2017-12-03T03:29:02.676Z,324.10
2017-12-03T03:30:02.691Z,263.30
2017-12-03T03:31:02.696Z,324.10
2017-12-03T03:32:02.709Z,305.20
2017-12-03T03:33:02.727Z,302.10
2017-12-03T03:34:02.716Z,279.00
2017-12-03T03:35:02.736Z,281.60
2017-12-03T03:36:02.753Z,295.30
2017-12-03T03:37:02.759Z,375.60
2017-12-03T03:38:02.775Z,349.50
2017-12-03T03:39:02.786Z,264.10
2017-12-03T03:40:02.786Z,239.30
2017-12-03T03:41:03.090Z,312.30
2017-12-03T03:42:02.814Z,259.30
2017-12-03T03:43:02.819Z,315.50
2017-12-03T03:44:02.816Z,298.90
2017-12-03T03:45:02.830Z,258.60
2017-12-03T03:46:02.852Z,327.90
2017-12-03T03:47:02.844Z,270.10
2017-12-03T03:48:02.863Z,229.60
2017-12-03T03:49:02.867Z,202.20
2017-12-03T03:50:02.882Z,219.60
2017-12-03T03:51:02.891Z,208.30
2017-12-03T03:52:02.907Z,213.50
2017-12-03T03:53:02.920Z,224.60
2017-12-03T03:54:02.929Z,189.10
2017-12-03T03:55:02.943Z,190.50
2017-12-03T03:56:02.946Z,181.70
2017-12-03T03:57:02.944Z,162.90
2017-12-03T03:58:02.954Z,152.50
2017-12-03T03:59:02.973Z,190.50
2017-12-03T04:00:02.980Z,204.20
2017-12-03T04:01:02.990Z,211.20
2017-12-03T04:02:02.994Z,173.00
2017-12-03T04:03:02.998Z,188.60
2017-12-03T04:04:03.017Z,169.70
2017-12-03T04:05:03.022Z,194.30
2017-12-03T04:06:03.325Z,171.70
2017-12-03T04:07:03.045Z,177.20
2017-12-03T04:08:03.054Z,154.90
2017-12-03T04:09:03.075Z,151.00
2017-12-03T04:10:03.083Z,158.80
2017-12-03T04:11:03.338Z,157.40
2017-12-03T04:12:03.102Z,150.10
2017-12-03T04:13:03.106Z,155.00
2017-12-03T04:14:03.115Z,163.60
2017-12-03T04:15:03.130Z,148.10
2017-12-03T04:16:03.133Z,169.60
2017-12-03T04:17:03.146Z,150.50
2017-12-03T04:18:03.155Z,147.10
2017-12-03T04:19:03.166Z,165.70
2017-12-03T04:20:03.172Z,158.50
2017-12-03T04:21:03.490Z,178.20
2017-12-03T04:22:03.186Z,152.20
2017-12-03T04:23:03.205Z,170.60
2017-12-03T04:24:03.216Z,174.70
2017-12-03T04:25:03.229Z,169.80
2017-12-03T04:26:03.231Z,150.80
2017-12-03T04:27:03.239Z,162.90
2017-12-03T04:28:03.250Z,167.30
2017-12-03T04:29:03.260Z,141.90
2017-12-03T04:30:03.269Z,186.90
2017-12-03T04:31:03.281Z,211.00
2017-12-03T04:32:03.280Z,187.40
2017-12-03T04:33:03.295Z,172.20
2017-12-03T04:34:03.303Z,159.00
2017-12-03T04:35:03.309Z,213.80
2017-12-03T04:36:03.320Z,194.70
2017-12-03T04:37:03.331Z,187.90
2017-12-03T04:38:03.340Z,198.60
2017-12-03T04:39:03.371Z,187.90
2017-12-03T04:40:03.365Z,208.20
2017-12-03T04:41:03.377Z,224.00
2017-12-03T04:42:03.387Z,205.00
2017-12-03T04:43:03.398Z,230.10
2017-12-03T04:44:03.412Z,235.80
2017-12-03T04:45:03.410Z,203.90
2017-12-03T04:46:03.471Z,215.70
2017-12-03T04:47:03.431Z,266.60
2017-12-03T04:48:03.444Z,226.70
2017-12-03T04:49:03.454Z,226.90
2017-12-03T04:50:03.459Z,231.30
2017-12-03T04:51:03.463Z,208.90
2017-12-03T04:52:03.479Z,217.10
2017-12-03T04:53:03.496Z,241.20
2017-12-03T04:54:03.501Z,238.70
2017-12-03T04:55:03.511Z,218.90
2017-12-03T04:56:03.532Z,219.00
2017-12-03T04:57:03.533Z,194.70
2017-12-03T04:58:03.543Z,190.70
2017-12-03T04:59:03.557Z,208.70
2017-12-03T05:00:03.561Z,198.00
2017-12-03T05:01:03.576Z,180.80
2017-12-03T05:02:03.580Z,168.20
2017-12-03T05:03:03.588Z,175.80
2017-12-03T05:04:03.595Z,157.60
2017-12-03T05:05:03.605Z,142.60
2017-12-03T05:06:03.615Z,151.70
2017-12-03T05:07:03.627Z,136.20
2017-12-03T05:08:03.633Z,144.50
2017-12-03T05:09:03.639Z,137.30
2017-12-03T05:10:03.660Z,139.20
2017-12-03T05:11:03.668Z,135.90
2017-12-03T05:12:03.677Z,141.90
2017-12-03T05:13:03.683Z,132.90
2017-12-03T05:14:03.690Z,140.00
2017-12-03T05:15:03.710Z,147.10
2017-12-03T05:16:03.710Z,144.60
2017-12-03T05:17:03.729Z,133.20
2017-12-03T05:18:03.737Z,139.20
2017-12-03T05:19:03.743Z,137.10
2017-12-03T05:20:03.756Z,141.10
2017-12-03T05:21:04.054Z,147.40
2017-12-03T05:22:03.774Z,140.90
2017-12-03T05:23:03.794Z,130.90
2017-12-03T05:24:03.793Z,125.50
2017-12-03T05:25:03.805Z,135.70
2017-12-03T05:26:03.817Z,126.60
2017-12-03T05:27:03.820Z,132.40
2017-12-03T05:28:03.839Z,117.80
2017-12-03T05:29:03.844Z,124.00
2017-12-03T05:30:03.847Z,122.20
2017-12-03T05:31:03.893Z,122.50
2017-12-03T05:32:03.865Z,124.10
2017-12-03T05:33:03.877Z,123.80
2017-12-03T05:34:03.893Z,120.10
2017-12-03T05:35:03.899Z,121.20
2017-12-03T05:36:04.166Z,122.90
2017-12-03T05:37:03.921Z,132.30
2017-12-03T05:38:03.937Z,128.60
2017-12-03T05:39:03.944Z,123.60
2017-12-03T05:40:03.948Z,118.70
2017-12-03T05:41:04.211Z,122.30
2017-12-03T05:42:03.969Z,115.60
2017-12-03T05:43:03.980Z,115.40
2017-12-03T05:44:03.987Z,109.50
2017-12-03T05:45:03.993Z,131.00
2017-12-03T05:46:04.002Z,116.20
2017-12-03T05:47:04.027Z,115.00
2017-12-03T05:48:04.040Z,115.20
2017-12-03T05:49:04.054Z,113.70
2017-12-03T05:50:04.056Z,115.50
2017-12-03T05:51:04.058Z,112.50
2017-12-03T05:52:04.071Z,113.20
2017-12-03T05:53:04.076Z,133.10
2017-12-03T05:54:04.085Z,124.30
2017-12-03T05:55:04.105Z,118.00
2017-12-03T05:56:04.109Z,114.50
2017-12-03T05:57:04.115Z,123.20
2017-12-03T05:58:04.125Z,113.50
2017-12-03T05:59:04.142Z,114.30
2017-12-03T06:00:04.161Z,119.90
2017-12-03T06:01:04.165Z,130.40
2017-12-03T06:02:04.169Z,127.80
2017-12-03T06:03:04.188Z,119.40
2017-12-03T06:04:04.192Z,118.10
2017-12-03T06:05:04.207Z,121.10
2017-12-03T06:06:04.214Z,122.80
2017-12-03T06:07:04.219Z,113.50
2017-12-03T06:08:04.226Z,110.30
2017-12-03T06:09:04.230Z,113.10
2017-12-03T06:10:04.248Z,121.50
2017-12-03T06:11:04.272Z,109.30
2017-12-03T06:12:04.271Z,118.30
2017-12-03T06:13:04.290Z,120.40
2017-12-03T06:14:04.298Z,121.20
2017-12-03T06:15:04.297Z,125.80
2017-12-03T06:16:04.311Z,127.60
2017-12-03T06:17:04.314Z,117.80
2017-12-03T06:18:04.332Z,113.80
2017-12-03T06:19:04.336Z,117.20
2017-12-03T06:20:04.350Z,115.20
2017-12-03T06:21:04.655Z,111.50
2017-12-03T06:22:04.382Z,117.10
2017-12-03T06:23:04.380Z,117.10
2017-12-03T06:24:04.394Z,115.50
2017-12-03T06:25:04.398Z,119.70
2017-12-03T06:26:04.413Z,113.60
2017-12-03T06:27:04.420Z,108.10
2017-12-03T06:28:04.425Z,115.00
2017-12-03T06:29:04.437Z,115.90
2017-12-03T06:30:04.456Z,121.10
2017-12-03T06:31:04.453Z,114.90
2017-12-03T06:32:04.477Z,111.90
2017-12-03T06:33:04.475Z,116.80
2017-12-03T06:34:04.491Z,116.90
2017-12-03T06:35:04.512Z,116.80
2017-12-03T06:36:04.516Z,124.80
2017-12-03T06:37:04.528Z,111.50
2017-12-03T06:38:04.530Z,108.50
2017-12-03T06:39:04.540Z,113.60
2017-12-03T06:40:04.555Z,115.30
2017-12-03T06:41:04.825Z,113.50
2017-12-03T06:42:04.567Z,107.00
2017-12-03T06:43:04.574Z,108.80
2017-12-03T06:44:04.588Z,109.10
2017-12-03T06:45:04.604Z,111.30
2017-12-03T06:46:04.904Z,111.70
2017-12-03T06:47:04.624Z,113.40
2017-12-03T06:48:04.638Z,118.70
2017-12-03T06:49:04.692Z,107.80
2017-12-03T06:50:04.664Z,113.40
2017-12-03T06:51:04.658Z,111.90
2017-12-03T06:52:04.663Z,111.50
2017-12-03T06:53:04.676Z,112.10
2017-12-03T06:54:04.697Z,100.90
2017-12-03T06:55:04.697Z,103.40
2017-12-03T06:56:04.704Z,97.90
2017-12-03T06:57:04.707Z,101.00
2017-12-03T06:58:04.723Z,100.70
2017-12-03T06:59:04.737Z,95.40
2017-12-03T07:00:04.751Z,91.50
2017-12-03T07:01:04.762Z,91.80
2017-12-03T07:02:04.768Z,91.90
2017-12-03T07:03:04.790Z,88.20
2017-12-03T07:04:04.789Z,96.60
2017-12-03T07:05:04.802Z,102.10
2017-12-03T07:06:04.810Z,93.80
2017-12-03T07:07:04.809Z,100.30
2017-12-03T07:08:04.829Z,104.00
2017-12-03T07:09:04.833Z,97.70
2017-12-03T07:10:04.842Z,95.30
2017-12-03T07:11:04.855Z,94.00
2017-12-03T07:12:04.860Z,98.60
2017-12-03T07:13:04.867Z,96.90
2017-12-03T07:14:04.887Z,103.80
2017-12-03T07:15:04.893Z,103.90
2017-12-03T07:16:04.905Z,94.60
2017-12-03T07:17:04.911Z,94.40
2017-12-03T07:18:04.926Z,84.50
2017-12-03T07:19:04.940Z,86.50
2017-12-03T07:20:04.938Z,97.20
2017-12-03T07:21:05.256Z,89.70
2017-12-03T07:22:04.960Z,88.80
2017-12-03T07:23:04.969Z,87.50
2017-12-03T07:24:04.978Z,83.40
2017-12-03T07:25:04.981Z,82.70
2017-12-03T07:26:04.997Z,86.90
2017-12-03T07:27:05.023Z,89.40
2017-12-03T07:28:05.021Z,95.60
2017-12-03T07:29:05.033Z,84.60
2017-12-03T07:30:05.049Z,79.50
2017-12-03T07:31:05.047Z,91.80
2017-12-03T07:32:05.061Z,87.80
2017-12-03T07:33:05.065Z,81.00
2017-12-03T07:34:05.081Z,87.50
2017-12-03T07:35:05.087Z,81.10
2017-12-03T07:36:05.098Z,87.80
2017-12-03T07:37:05.109Z,81.40
2017-12-03T07:38:05.123Z,88.60
2017-12-03T07:39:05.124Z,89.40
2017-12-03T07:40:05.138Z,88.70
2017-12-03T07:41:05.387Z,83.90
2017-12-03T07:42:05.145Z,83.40
2017-12-03T07:43:05.158Z,84.60
2017-12-03T07:44:05.171Z,91.30
2017-12-03T07:45:05.198Z,84.50
2017-12-03T07:46:05.203Z,86.30
2017-12-03T07:47:05.202Z,82.20
2017-12-03T07:48:05.216Z,80.30
2017-12-03T07:49:05.227Z,84.40
2017-12-03T07:50:05.236Z,82.90
2017-12-03T07:51:05.249Z,84.40
2017-12-03T07:52:05.253Z,81.80
2017-12-03T07:53:05.265Z,82.50
2017-12-03T07:54:05.268Z,76.50
2017-12-03T07:55:05.274Z,73.00
2017-12-03T07:56:05.292Z,74.70
2017-12-03T07:57:05.297Z,79.10
2017-12-03T07:58:05.307Z,70.80
2017-12-03T07:59:05.319Z,70.80
2017-12-03T08:00:05.317Z,71.70
2017-12-03T08:01:05.339Z,72.90
2017-12-03T08:02:05.340Z,68.70
2017-12-03T08:03:05.351Z,69.90
2017-12-03T08:04:05.356Z,83.30
2017-12-03T08:05:05.401Z,74.00
2017-12-03T08:06:05.378Z,76.40
2017-12-03T08:07:05.383Z,70.20
2017-12-03T08:08:05.389Z,72.60
2017-12-03T08:09:05.407Z,67.90
2017-12-03T08:10:05.416Z,64.30
2017-12-03T08:11:05.419Z,72.50
2017-12-03T08:12:05.435Z,63.30
2017-12-03T08:13:05.433Z,68.40
2017-12-03T08:14:05.443Z,63.80
2017-12-03T08:15:05.473Z,61.50
2017-12-03T08:16:05.473Z,61.90
2017-12-03T08:17:05.485Z,64.90
2017-12-03T08:18:05.500Z,65.60
2017-12-03T08:19:05.499Z,61.30
2017-12-03T08:20:05.515Z,61.40
2017-12-03T08:21:05.524Z,59.40
2017-12-03T08:22:05.526Z,62.60
2017-12-03T08:23:05.539Z,61.50
2017-12-03T08:24:05.558Z,56.10
2017-12-03T08:25:05.563Z,56.50
2017-12-03T08:26:05.572Z,59.90
2017-12-03T08:27:05.569Z,57.00
2017-12-03T08:28:05.583Z,54.40
2017-12-03T08:29:05.588Z,55.80
2017-12-03T08:30:05.602Z,55.40
2017-12-03T08:31:05.609Z,56.60
2017-12-03T08:32:05.615Z,56.40
2017-12-03T08:33:05.634Z,54.00
2017-12-03T08:34:05.637Z,51.30
2017-12-03T08:35:05.647Z,53.70
2017-12-03T08:36:05.655Z,54.10
2017-12-03T08:37:05.671Z,50.20
2017-12-03T08:38:05.673Z,53.50
2017-12-03T08:39:05.680Z,53.00
2017-12-03T08:40:05.686Z,55.20
2017-12-03T08:41:05.710Z,49.00
2017-12-03T08:42:05.707Z,50.20
2017-12-03T08:43:05.713Z,46.70
2017-12-03T08:44:05.726Z,48.70
2017-12-03T08:45:05.731Z,50.30
2017-12-03T08:46:05.745Z,47.20
2017-12-03T08:47:05.771Z,46.30
2017-12-03T08:48:05.777Z,46.10
2017-12-03T08:49:05.772Z,45.70
2017-12-03T08:50:05.803Z,48.10
2017-12-03T08:51:05.796Z,46.90
2017-12-03T08:52:05.810Z,46.80
2017-12-03T08:53:05.814Z,50.50
2017-12-03T08:54:05.828Z,46.70
2017-12-03T08:55:05.843Z,47.00
2017-12-03T08:56:05.860Z,46.00
2017-12-03T08:57:05.859Z,46.90
2017-12-03T08:58:05.867Z,43.50
2017-12-03T08:59:05.866Z,43.30
2017-12-03T09:00:05.899Z,45.80
2017-12-03T09:01:05.886Z,39.40
2017-12-03T09:02:05.897Z,43.70
2017-12-03T09:03:05.921Z,43.20
2017-12-03T09:04:05.911Z,39.60
2017-12-03T09:05:05.931Z,44.20
2017-12-03T09:06:05.939Z,40.00
2017-12-03T09:07:05.946Z,41.00
2017-12-03T09:08:05.948Z,39.70
2017-12-03T09:09:05.961Z,42.70
2017-12-03T09:10:05.969Z,41.10
2017-12-03T09:11:05.981Z,45.30
2017-12-03T09:12:05.996Z,39.20
2017-12-03T09:13:05.992Z,40.60
2017-12-03T09:14:06.005Z,39.30
2017-12-03T09:15:06.033Z,39.20
2017-12-03T09:16:06.036Z,40.50
2017-12-03T09:17:06.050Z,39.30
2017-12-03T09:18:06.059Z,41.60
2017-12-03T09:19:06.057Z,41.80
2017-12-03T09:20:06.070Z,40.30
2017-12-03T09:21:06.081Z,38.90
2017-12-03T09:22:06.091Z,41.80
2017-12-03T09:23:06.104Z,40.00
2017-12-03T09:24:06.102Z,38.80
2017-12-03T09:25:06.114Z,37.50
2017-12-03T09:26:06.130Z,40.30
2017-12-03T09:27:06.135Z,37.30
2017-12-03T09:28:06.142Z,36.90
2017-12-03T09:29:06.163Z,37.40
2017-12-03T09:30:06.161Z,37.70
2017-12-03T09:31:06.175Z,39.50
2017-12-03T09:32:06.179Z,35.20
2017-12-03T09:33:06.193Z,36.20
2017-12-03T09:34:06.197Z,35.30
2017-12-03T09:35:06.213Z,36.90
2017-12-03T09:36:06.232Z,33.60
2017-12-03T09:37:06.236Z,35.50
2017-12-03T09:38:06.244Z,35.30
2017-12-03T09:39:06.259Z,33.40
2017-12-03T09:40:06.262Z,34.30
2017-12-03T09:41:06.270Z,36.90
2017-12-03T09:42:06.285Z,34.20
2017-12-03T09:43:06.289Z,34.20
2017-12-03T09:44:06.303Z,34.00
2017-12-03T09:45:06.308Z,35.60
2017-12-03T09:46:06.318Z,34.30
2017-12-03T09:47:06.322Z,33.80
2017-12-03T09:48:06.334Z,34.70
2017-12-03T09:49:06.343Z,32.50
2017-12-03T09:50:06.384Z,32.80
2017-12-03T09:51:06.366Z,32.60
2017-12-03T09:52:06.387Z,32.00
2017-12-03T09:53:06.390Z,33.40
2017-12-03T09:54:06.399Z,31.00
2017-12-03T09:55:06.413Z,34.50
2017-12-03T09:56:06.466Z,30.90
2017-12-03T09:57:06.431Z,31.40
2017-12-03T09:58:06.437Z,29.70
2017-12-03T09:59:06.439Z,29.40
2017-12-03T10:00:06.458Z,28.80
2017-12-03T10:01:06.456Z,31.90
2017-12-03T10:02:06.471Z,33.30
2017-12-03T10:03:06.486Z,30.20
2017-12-03T10:04:06.502Z,30.30
2017-12-03T10:05:06.514Z,28.10
2017-12-03T10:06:06.516Z,29.30
2017-12-03T10:07:06.527Z,31.10
2017-12-03T10:08:06.540Z,30.40
2017-12-03T10:09:06.539Z,28.20
2017-12-03T10:10:06.547Z,28.80
2017-12-03T10:11:06.567Z,31.10
2017-12-03T10:12:06.566Z,28.40
2017-12-03T10:13:06.579Z,30.00
2017-12-03T10:14:06.588Z,28.50
2017-12-03T10:15:06.594Z,26.50
2017-12-03T10:16:06.629Z,29.40
2017-12-03T10:17:06.623Z,25.30
2017-12-03T10:18:06.633Z,30.30
2017-12-03T10:19:06.643Z,27.00
2017-12-03T10:20:06.649Z,30.70
2017-12-03T10:21:06.667Z,27.30
2017-12-03T10:22:06.678Z,28.10
2017-12-03T10:23:06.684Z,27.40
2017-12-03T10:24:06.709Z,26.90
2017-12-03T10:25:06.718Z,27.70
2017-12-03T10:26:06.716Z,26.30
2017-12-03T10:27:06.733Z,25.70
2017-12-03T10:28:06.733Z,27.20
2017-12-03T10:29:06.746Z,27.60
2017-12-03T10:30:06.755Z,26.80
2017-12-03T10:31:06.779Z,25.90
2017-12-03T10:32:06.792Z,26.60
2017-12-03T10:33:06.789Z,27.20
2017-12-03T10:34:06.808Z,26.40
2017-12-03T10:35:06.818Z,26.20
2017-12-03T10:36:06.819Z,25.00
2017-12-03T10:37:06.842Z,24.70
2017-12-03T10:38:06.852Z,23.90
2017-12-03T10:39:06.862Z,25.10
2017-12-03T10:40:06.870Z,25.80
2017-12-03T10:41:07.124Z,27.00
2017-12-03T10:42:06.896Z,28.30
2017-12-03T10:43:06.917Z,28.20
2017-12-03T10:44:06.913Z,25.30
2017-12-03T10:45:06.931Z,28.00
2017-12-03T10:46:06.935Z,26.40
2017-12-03T10:47:06.952Z,25.90
2017-12-03T10:48:06.973Z,24.60
2017-12-03T10:49:06.975Z,24.80
2017-12-03T10:50:06.988Z,27.90
2017-12-03T10:51:07.004Z,25.20
2017-12-03T10:52:07.016Z,23.60
2017-12-03T10:53:07.029Z,25.40
2017-12-03T10:54:07.036Z,28.10
2017-12-03T10:55:07.050Z,26.70
2017-12-03T10:56:07.069Z,25.80
2017-12-03T10:57:07.072Z,25.20
2017-12-03T10:58:07.083Z,25.40
2017-12-03T10:59:07.102Z,24.10
2017-12-03T11:00:07.105Z,25.40
2017-12-03T11:01:07.118Z,24.50
2017-12-03T11:02:07.129Z,24.00
2017-12-03T11:03:07.145Z,22.60
2017-12-03T11:04:07.163Z,25.90
2017-12-03T11:05:07.168Z,24.30
2017-12-03T11:06:07.171Z,25.30
2017-12-03T11:07:07.202Z,25.50
2017-12-03T11:08:07.202Z,23.90
2017-12-03T11:09:07.214Z,24.50
2017-12-03T11:10:07.255Z,25.80
2017-12-03T11:11:07.240Z,23.90
2017-12-03T11:12:07.261Z,26.20
2017-12-03T11:13:07.259Z,24.50
2017-12-03T11:14:07.279Z,24.60
2017-12-03T11:15:07.292Z,23.40
2017-12-03T11:16:07.308Z,24.30
2017-12-03T11:17:07.319Z,23.50
2017-12-03T11:18:07.328Z,22.30
2017-12-03T11:19:07.346Z,25.10
2017-12-03T11:20:07.365Z,24.10
2017-12-03T11:21:07.371Z,23.30
2017-12-03T11:22:07.386Z,22.90
2017-12-03T11:23:07.386Z,25.70
2017-12-03T11:24:07.416Z,24.70
2017-12-03T11:25:07.421Z,25.30
2017-12-03T11:26:07.423Z,25.40
2017-12-03T11:27:07.449Z,25.00
2017-12-03T11:28:07.466Z,23.20
2017-12-03T11:29:07.474Z,23.10
2017-12-03T11:30:07.489Z,24.90
2017-12-03T11:31:07.493Z,26.50
2017-12-03T11:32:07.516Z,24.10
2017-12-03T11:33:07.511Z,23.80
2017-12-03T11:34:07.540Z,24.40
2017-12-03T11:35:07.552Z,23.80
2017-12-03T11:36:07.559Z,24.40
2017-12-03T11:37:07.575Z,24.20
2017-12-03T11:38:07.584Z,22.70
2017-12-03T11:39:07.589Z,24.50
2017-12-03T11:40:07.611Z,25.60
2017-12-03T11:41:07.875Z,23.70
2017-12-03T11:42:07.634Z,22.00
2017-12-03T11:43:07.648Z,25.50
2017-12-03T11:44:07.666Z,23.10
2017-12-03T11:45:07.672Z,23.60
2017-12-03T11:46:07.680Z,21.50
2017-12-03T11:47:07.700Z,21.90
2017-12-03T11:48:07.711Z,23.60
2017-12-03T11:49:07.717Z,21.60
2017-12-03T11:50:07.731Z,23.80
2017-12-03T11:51:07.751Z,21.00
2017-12-03T11:52:07.762Z,21.00
2017-12-03T11:53:07.769Z,21.60
2017-12-03T11:54:07.797Z,21.00
2017-12-03T11:55:07.811Z,19.70
2017-12-03T11:56:07.807Z,21.30
2017-12-03T11:57:07.824Z,21.10
2017-12-03T11:58:07.834Z,20.80
2017-12-03T11:59:07.852Z,21.50
2017-12-03T12:00:07.864Z,21.10
2017-12-03T12:01:08.176Z,20.50
2017-12-03T12:02:07.887Z,21.10
2017-12-03T12:03:07.893Z,21.30
2017-12-03T12:04:07.915Z,22.00
2017-12-03T12:05:07.920Z,19.90
2017-12-03T12:06:07.936Z,20.90
2017-12-03T12:07:07.955Z,23.70
2017-12-03T12:08:07.966Z,20.80
2017-12-03T12:09:07.985Z,21.20
2017-12-03T12:10:07.999Z,21.10
2017-12-03T12:11:08.000Z,22.80
2017-12-03T12:12:08.025Z,21.30
2017-12-03T12:13:08.035Z,21.30
2017-12-03T12:14:08.044Z,21.70
2017-12-03T12:15:08.051Z,23.00
2017-12-03T12:16:08.074Z,21.70
2017-12-03T12:17:08.081Z,22.10
2017-12-03T12:18:08.089Z,22.40
2017-12-03T12:19:08.106Z,22.30
2017-12-03T12:20:08.127Z,22.80
2017-12-03T12:21:08.376Z,22.30
2017-12-03T12:22:08.135Z,22.20
2017-12-03T12:23:08.159Z,21.90
2017-12-03T12:24:08.165Z,21.60
2017-12-03T12:25:08.178Z,22.30
2017-12-03T12:26:08.204Z,22.10
2017-12-03T12:27:08.203Z,22.00
2017-12-03T12:28:08.222Z,21.80
2017-12-03T12:29:08.233Z,22.60
2017-12-03T12:30:08.249Z,23.20
2017-12-03T12:31:08.264Z,23.80
2017-12-03T12:32:08.279Z,22.70
2017-12-03T12:33:08.293Z,22.30
2017-12-03T12:34:08.295Z,26.40
2017-12-03T12:35:08.312Z,20.60
2017-12-03T12:36:08.326Z,24.90
2017-12-03T12:37:08.336Z,23.00
2017-12-03T12:38:08.345Z,23.00
2017-12-03T12:39:08.365Z,22.40